sensor_id;sensor_type;location;lat;lon;timestamp;temperature;humidity
15105;DHT22;7653;48.994;9.212;2023-05-10T00:02:07;14.10;94.30
15105;DHT22;7653;48.994;9.212;2023-05-10T00:04:32;14.10;96.00
15105;DHT22;7653;48.994;9.212;2023-05-10T00:06:58;14.00;94.80
15105;DHT22;7653;48.994;9.212;2023-05-10T00:09:24;14.00;95.90
15105;DHT22;7653;48.994;9.212;2023-05-10T00:11:49;13.90;96.10
15105;DHT22;7653;48.994;9.212;2023-05-10T00:14:15;14.00;96.20
15105;DHT22;7653;48.994;9.212;2023-05-10T00:16:41;13.90;96.20
15105;DHT22;7653;48.994;9.212;2023-05-10T00:19:07;13.90;96.70
15105;DHT22;7653;48.994;9.212;2023-05-10T00:21:32;13.90;96.60
15105;DHT22;7653;48.994;9.212;2023-05-10T00:23:59;13.90;96.70
15105;DHT22;7653;48.994;9.212;2023-05-10T00:26:25;14.00;96.70
15105;DHT22;7653;48.994;9.212;2023-05-10T00:28:50;14.00;96.70
15105;DHT22;7653;48.994;9.212;2023-05-10T00:31:16;13.90;96.70
15105;DHT22;7653;48.994;9.212;2023-05-10T00:33:42;13.90;97.40
15105;DHT22;7653;48.994;9.212;2023-05-10T00:36:08;13.90;97.60
15105;DHT22;7653;48.994;9.212;2023-05-10T00:38:33;13.80;98.40
15105;DHT22;7653;48.994;9.212;2023-05-10T00:40:59;13.80;98.30
15105;DHT22;7653;48.994;9.212;2023-05-10T00:43:25;13.90;98.10
15105;DHT22;7653;48.994;9.212;2023-05-10T00:45:51;13.80;97.20
15105;DHT22;7653;48.994;9.212;2023-05-10T00:48:16;13.70;96.60
15105;DHT22;7653;48.994;9.212;2023-05-10T00:50:42;13.70;96.60
15105;DHT22;7653;48.994;9.212;2023-05-10T00:53:08;13.70;96.80
15105;DHT22;7653;48.994;9.212;2023-05-10T00:55:34;13.60;96.60
15105;DHT22;7653;48.994;9.212;2023-05-10T00:58:00;13.70;96.60
15105;DHT22;7653;48.994;9.212;2023-05-10T01:00:26;13.70;96.60
15105;DHT22;7653;48.994;9.212;2023-05-10T01:02:53;13.60;96.50
15105;DHT22;7653;48.994;9.212;2023-05-10T01:05:19;13.70;96.80
15105;DHT22;7653;48.994;9.212;2023-05-10T01:07:45;13.70;96.80
15105;DHT22;7653;48.994;9.212;2023-05-10T01:10:11;13.60;96.50
15105;DHT22;7653;48.994;9.212;2023-05-10T01:12:39;13.60;96.80
15105;DHT22;7653;48.994;9.212;2023-05-10T01:15:07;13.60;96.90
15105;DHT22;7653;48.994;9.212;2023-05-10T01:17:35;13.60;96.50
15105;DHT22;7653;48.994;9.212;2023-05-10T01:20:02;13.50;96.80
15105;DHT22;7653;48.994;9.212;2023-05-10T01:28:39;13.40;96.20
15105;DHT22;7653;48.994;9.212;2023-05-10T01:34:05;13.40;95.20
15105;DHT22;7653;48.994;9.212;2023-05-10T01:36:43;13.40;94.50
15105;DHT22;7653;48.994;9.212;2023-05-10T01:39:15;13.40;95.70
15105;DHT22;7653;48.994;9.212;2023-05-10T01:49:56;13.30;95.60
15105;DHT22;7653;48.994;9.212;2023-05-10T01:52:32;13.30;94.80
15105;DHT22;7653;48.994;9.212;2023-05-10T01:55:14;13.30;95.60
15105;DHT22;7653;48.994;9.212;2023-05-10T01:57:43;13.10;94.80
15105;DHT22;7653;48.994;9.212;2023-05-10T02:00:11;13.20;96.20
15105;DHT22;7653;48.994;9.212;2023-05-10T02:02:39;13.20;95.30
15105;DHT22;7653;48.994;9.212;2023-05-10T02:05:07;13.20;94.40
15105;DHT22;7653;48.994;9.212;2023-05-10T02:07:35;13.20;94.40
15105;DHT22;7653;48.994;9.212;2023-05-10T02:10:06;13.20;95.00
15105;DHT22;7653;48.994;9.212;2023-05-10T02:12:37;13.20;96.00
15105;DHT22;7653;48.994;9.212;2023-05-10T02:15:05;13.20;95.00
15105;DHT22;7653;48.994;9.212;2023-05-10T02:17:32;13.30;94.70
15105;DHT22;7653;48.994;9.212;2023-05-10T02:20:01;13.20;94.40
15105;DHT22;7653;48.994;9.212;2023-05-10T02:22:27;13.30;94.50
15105;DHT22;7653;48.994;9.212;2023-05-10T02:24:58;13.30;94.50
15105;DHT22;7653;48.994;9.212;2023-05-10T02:27:25;13.30;94.50
15105;DHT22;7653;48.994;9.212;2023-05-10T02:29:53;13.30;94.50
15105;DHT22;7653;48.994;9.212;2023-05-10T02:32:21;13.20;93.50
15105;DHT22;7653;48.994;9.212;2023-05-10T02:34:47;13.30;94.10
15105;DHT22;7653;48.994;9.212;2023-05-10T02:37:19;13.30;94.30
15105;DHT22;7653;48.994;9.212;2023-05-10T02:39:47;13.20;94.40
15105;DHT22;7653;48.994;9.212;2023-05-10T02:42:24;13.30;94.50
15105;DHT22;7653;48.994;9.212;2023-05-10T02:44:52;13.20;94.90
15105;DHT22;7653;48.994;9.212;2023-05-10T02:47:18;13.20;95.60
15105;DHT22;7653;48.994;9.212;2023-05-10T02:49:44;13.20;95.40
15105;DHT22;7653;48.994;9.212;2023-05-10T02:52:16;13.20;95.90
15105;DHT22;7653;48.994;9.212;2023-05-10T02:54:45;13.20;95.30
15105;DHT22;7653;48.994;9.212;2023-05-10T02:57:17;13.30;95.20
15105;DHT22;7653;48.994;9.212;2023-05-10T02:59:45;13.40;95.50
15105;DHT22;7653;48.994;9.212;2023-05-10T03:02:14;13.30;95.20
15105;DHT22;7653;48.994;9.212;2023-05-10T03:04:40;13.40;94.50
15105;DHT22;7653;48.994;9.212;2023-05-10T03:07:06;13.40;94.50
15105;DHT22;7653;48.994;9.212;2023-05-10T03:09:32;13.40;94.30
15105;DHT22;7653;48.994;9.212;2023-05-10T03:19:57;13.40;94.10
15105;DHT22;7653;48.994;9.212;2023-05-10T03:22:32;13.40;94.60
15105;DHT22;7653;48.994;9.212;2023-05-10T03:25:00;13.40;94.20
15105;DHT22;7653;48.994;9.212;2023-05-10T03:27:28;13.30;94.10
15105;DHT22;7653;48.994;9.212;2023-05-10T03:29:57;13.40;94.50
15105;DHT22;7653;48.994;9.212;2023-05-10T03:32:23;13.50;94.70
15105;DHT22;7653;48.994;9.212;2023-05-10T03:34:49;13.40;95.40
15105;DHT22;7653;48.994;9.212;2023-05-10T03:37:14;13.40;95.10
15105;DHT22;7653;48.994;9.212;2023-05-10T03:39:40;13.40;95.50
15105;DHT22;7653;48.994;9.212;2023-05-10T03:42:06;13.40;95.30
15105;DHT22;7653;48.994;9.212;2023-05-10T03:44:31;13.40;95.60
15105;DHT22;7653;48.994;9.212;2023-05-10T03:46:59;13.40;95.40
15105;DHT22;7653;48.994;9.212;2023-05-10T03:49:25;13.40;95.70
15105;DHT22;7653;48.994;9.212;2023-05-10T03:51:50;13.40;94.70
15105;DHT22;7653;48.994;9.212;2023-05-10T03:54:16;13.50;94.60
15105;DHT22;7653;48.994;9.212;2023-05-10T03:56:42;13.50;94.60
15105;DHT22;7653;48.994;9.212;2023-05-10T03:59:07;13.60;94.60
15105;DHT22;7653;48.994;9.212;2023-05-10T04:01:34;13.60;94.60
15105;DHT22;7653;48.994;9.212;2023-05-10T04:04:00;13.50;93.90
15105;DHT22;7653;48.994;9.212;2023-05-10T04:06:26;13.40;94.50
15105;DHT22;7653;48.994;9.212;2023-05-10T04:08:51;13.40;95.40
15105;DHT22;7653;48.994;9.212;2023-05-10T04:11:17;13.50;96.10
15105;DHT22;7653;48.994;9.212;2023-05-10T04:13:43;13.50;96.80
15105;DHT22;7653;48.994;9.212;2023-05-10T04:16:08;13.50;97.30
15105;DHT22;7653;48.994;9.212;2023-05-10T04:18:34;13.50;97.20
15105;DHT22;7653;48.994;9.212;2023-05-10T04:21:00;13.60;96.80
15105;DHT22;7653;48.994;9.212;2023-05-10T04:23:29;13.60;96.20
15105;DHT22;7653;48.994;9.212;2023-05-10T04:26:01;13.50;95.80
15105;DHT22;7653;48.994;9.212;2023-05-10T04:28:27;13.60;96.10
15105;DHT22;7653;48.994;9.212;2023-05-10T04:30:53;13.60;96.60
15105;DHT22;7653;48.994;9.212;2023-05-10T04:33:19;13.60;96.20
15105;DHT22;7653;48.994;9.212;2023-05-10T04:35:44;13.60;96.40
15105;DHT22;7653;48.994;9.212;2023-05-10T04:38:10;13.60;95.90
15105;DHT22;7653;48.994;9.212;2023-05-10T04:40:36;13.60;95.80
15105;DHT22;7653;48.994;9.212;2023-05-10T04:43:01;13.70;95.30
15105;DHT22;7653;48.994;9.212;2023-05-10T04:45:27;13.60;94.60
15105;DHT22;7653;48.994;9.212;2023-05-10T04:47:52;13.60;94.60
15105;DHT22;7653;48.994;9.212;2023-05-10T04:50:18;13.50;93.90
15105;DHT22;7653;48.994;9.212;2023-05-10T04:52:44;13.50;94.60
15105;DHT22;7653;48.994;9.212;2023-05-10T04:55:10;13.60;94.90
15105;DHT22;7653;48.994;9.212;2023-05-10T04:57:36;13.50;92.70
15105;DHT22;7653;48.994;9.212;2023-05-10T05:00:01;13.60;93.30
15105;DHT22;7653;48.994;9.212;2023-05-10T05:02:27;13.70;92.90
15105;DHT22;7653;48.994;9.212;2023-05-10T05:04:55;13.50;93.20
15105;DHT22;7653;48.994;9.212;2023-05-10T05:07:20;13.60;92.00
15105;DHT22;7653;48.994;9.212;2023-05-10T05:09:46;13.60;91.80
15105;DHT22;7653;48.994;9.212;2023-05-10T05:12:12;13.60;91.00
15105;DHT22;7653;48.994;9.212;2023-05-10T05:14:39;13.60;91.80
15105;DHT22;7653;48.994;9.212;2023-05-10T05:17:05;13.70;91.30
15105;DHT22;7653;48.994;9.212;2023-05-10T05:19:31;13.60;90.30
15105;DHT22;7653;48.994;9.212;2023-05-10T05:21:57;13.60;90.40
15105;DHT22;7653;48.994;9.212;2023-05-10T05:24:22;13.60;90.70
15105;DHT22;7653;48.994;9.212;2023-05-10T05:26:48;13.60;90.60
15105;DHT22;7653;48.994;9.212;2023-05-10T05:29:14;13.70;91.40
15105;DHT22;7653;48.994;9.212;2023-05-10T05:31:39;13.80;90.90
15105;DHT22;7653;48.994;9.212;2023-05-10T05:34:05;13.80;90.90
15105;DHT22;7653;48.994;9.212;2023-05-10T05:36:31;13.80;90.20
15105;DHT22;7653;48.994;9.212;2023-05-10T05:38:57;13.80;90.70
15105;DHT22;7653;48.994;9.212;2023-05-10T05:41:23;13.90;89.80
15105;DHT22;7653;48.994;9.212;2023-05-10T05:43:50;13.90;89.90
15105;DHT22;7653;48.994;9.212;2023-05-10T05:46:15;14.00;90.70
15105;DHT22;7653;48.994;9.212;2023-05-10T05:48:41;14.10;90.10
15105;DHT22;7653;48.994;9.212;2023-05-10T05:51:07;14.10;86.10
15105;DHT22;7653;48.994;9.212;2023-05-10T05:53:33;14.10;89.30
15105;DHT22;7653;48.994;9.212;2023-05-10T05:55:59;14.20;85.50
15105;DHT22;7653;48.994;9.212;2023-05-10T05:58:25;14.10;89.20
15105;DHT22;7653;48.994;9.212;2023-05-10T06:00:51;14.00;88.60
15105;DHT22;7653;48.994;9.212;2023-05-10T06:03:17;14.10;88.60
15105;DHT22;7653;48.994;9.212;2023-05-10T06:05:43;14.20;88.70
15105;DHT22;7653;48.994;9.212;2023-05-10T06:08:09;14.20;87.40
15105;DHT22;7653;48.994;9.212;2023-05-10T06:10:35;14.40;86.00
15105;DHT22;7653;48.994;9.212;2023-05-10T06:13:01;14.50;86.20
15105;DHT22;7653;48.994;9.212;2023-05-10T06:15:27;14.50;82.40
15105;DHT22;7653;48.994;9.212;2023-05-10T06:17:53;14.50;83.10
15105;DHT22;7653;48.994;9.212;2023-05-10T06:20:18;14.40;81.30
15105;DHT22;7653;48.994;9.212;2023-05-10T06:22:44;14.40;84.60
15105;DHT22;7653;48.994;9.212;2023-05-10T06:25:10;14.50;83.50
15105;DHT22;7653;48.994;9.212;2023-05-10T06:27:36;14.50;83.10
15105;DHT22;7653;48.994;9.212;2023-05-10T06:30:02;14.50;82.10
15105;DHT22;7653;48.994;9.212;2023-05-10T06:32:28;14.50;83.10
15105;DHT22;7653;48.994;9.212;2023-05-10T06:34:53;14.70;84.40
15105;DHT22;7653;48.994;9.212;2023-05-10T06:37:19;14.70;83.30
15105;DHT22;7653;48.994;9.212;2023-05-10T06:39:45;14.70;83.30
15105;DHT22;7653;48.994;9.212;2023-05-10T06:42:11;14.70;83.20
15105;DHT22;7653;48.994;9.212;2023-05-10T06:44:36;14.60;83.20
15105;DHT22;7653;48.994;9.212;2023-05-10T06:47:02;14.60;81.50
15105;DHT22;7653;48.994;9.212;2023-05-10T06:49:28;14.50;79.80
15105;DHT22;7653;48.994;9.212;2023-05-10T06:51:55;14.40;79.90
15105;DHT22;7653;48.994;9.212;2023-05-10T06:54:20;14.50;83.10
15105;DHT22;7653;48.994;9.212;2023-05-10T06:56:46;14.50;83.80
15105;DHT22;7653;48.994;9.212;2023-05-10T06:59:12;14.70;80.50
15105;DHT22;7653;48.994;9.212;2023-05-10T07:01:39;14.70;78.10
15105;DHT22;7653;48.994;9.212;2023-05-10T07:04:05;14.70;75.70
15105;DHT22;7653;48.994;9.212;2023-05-10T07:06:30;14.70;77.00
15105;DHT22;7653;48.994;9.212;2023-05-10T07:08:56;14.90;78.90
15105;DHT22;7653;48.994;9.212;2023-05-10T07:11:22;14.90;77.10
15105;DHT22;7653;48.994;9.212;2023-05-10T07:13:48;14.80;76.40
15105;DHT22;7653;48.994;9.212;2023-05-10T07:16:13;14.80;74.20
15105;DHT22;7653;48.994;9.212;2023-05-10T07:18:39;14.90;74.10
15105;DHT22;7653;48.994;9.212;2023-05-10T07:21:04;14.90;74.10
15105;DHT22;7653;48.994;9.212;2023-05-10T07:23:30;15.00;72.90
15105;DHT22;7653;48.994;9.212;2023-05-10T07:25:56;15.10;74.30
15105;DHT22;7653;48.994;9.212;2023-05-10T07:28:23;15.30;71.90
15105;DHT22;7653;48.994;9.212;2023-05-10T07:30:49;15.40;67.40
15105;DHT22;7653;48.994;9.212;2023-05-10T07:33:15;15.10;71.30
15105;DHT22;7653;48.994;9.212;2023-05-10T07:35:42;14.90;67.40
15105;DHT22;7653;48.994;9.212;2023-05-10T07:38:07;14.90;68.70
15105;DHT22;7653;48.994;9.212;2023-05-10T07:40:33;14.90;66.40
15105;DHT22;7653;48.994;9.212;2023-05-10T07:42:59;14.90;68.00
15105;DHT22;7653;48.994;9.212;2023-05-10T07:45:27;14.80;66.70
15105;DHT22;7653;48.994;9.212;2023-05-10T07:47:52;15.10;69.10
15105;DHT22;7653;48.994;9.212;2023-05-10T07:50:18;15.10;64.40
15105;DHT22;7653;48.994;9.212;2023-05-10T07:52:43;15.30;66.10
15105;DHT22;7653;48.994;9.212;2023-05-10T07:55:09;15.40;65.00
15105;DHT22;7653;48.994;9.212;2023-05-10T07:57:35;15.30;59.30
15105;DHT22;7653;48.994;9.212;2023-05-10T08:00:02;15.20;62.00
15105;DHT22;7653;48.994;9.212;2023-05-10T08:02:28;15.30;60.50
15105;DHT22;7653;48.994;9.212;2023-05-10T08:04:53;15.60;59.80
15105;DHT22;7653;48.994;9.212;2023-05-10T08:07:19;15.80;60.10
15105;DHT22;7653;48.994;9.212;2023-05-10T08:09:45;15.60;57.70
15105;DHT22;7653;48.994;9.212;2023-05-10T08:12:10;16.00;57.10
15105;DHT22;7653;48.994;9.212;2023-05-10T08:14:36;15.80;53.00
15105;DHT22;7653;48.994;9.212;2023-05-10T08:17:04;15.90;57.40
15105;DHT22;7653;48.994;9.212;2023-05-10T08:19:30;15.90;53.70
15105;DHT22;7653;48.994;9.212;2023-05-10T08:21:56;16.10;54.00
15105;DHT22;7653;48.994;9.212;2023-05-10T08:24:22;15.60;51.50
15105;DHT22;7653;48.994;9.212;2023-05-10T08:26:48;15.40;53.20
15105;DHT22;7653;48.994;9.212;2023-05-10T08:29:14;15.30;54.80
15105;DHT22;7653;48.994;9.212;2023-05-10T08:31:40;15.60;60.00
15105;DHT22;7653;48.994;9.212;2023-05-10T08:34:06;15.50;53.50
15105;DHT22;7653;48.994;9.212;2023-05-10T08:36:32;15.60;53.40
15105;DHT22;7653;48.994;9.212;2023-05-10T08:38:57;15.80;54.00
15105;DHT22;7653;48.994;9.212;2023-05-10T08:41:24;15.90;51.70
15105;DHT22;7653;48.994;9.212;2023-05-10T08:43:52;15.90;53.10
15105;DHT22;7653;48.994;9.212;2023-05-10T08:46:19;15.90;50.80
15105;DHT22;7653;48.994;9.212;2023-05-10T08:48:46;15.80;51.80
15105;DHT22;7653;48.994;9.212;2023-05-10T08:51:22;15.80;50.40
15105;DHT22;7653;48.994;9.212;2023-05-10T08:53:49;15.70;52.20
15105;DHT22;7653;48.994;9.212;2023-05-10T08:56:15;15.90;53.00
15105;DHT22;7653;48.994;9.212;2023-05-10T08:58:41;15.80;50.00
15105;DHT22;7653;48.994;9.212;2023-05-10T09:01:08;15.70;51.80
15105;DHT22;7653;48.994;9.212;2023-05-10T09:03:35;15.60;47.70
15105;DHT22;7653;48.994;9.212;2023-05-10T09:06:03;15.40;53.30
15105;DHT22;7653;48.994;9.212;2023-05-10T09:08:30;15.40;56.70
15105;DHT22;7653;48.994;9.212;2023-05-10T09:10:57;15.10;55.30
15105;DHT22;7653;48.994;9.212;2023-05-10T09:13:23;15.10;56.80
15105;DHT22;7653;48.994;9.212;2023-05-10T09:15:50;15.20;55.10
15105;DHT22;7653;48.994;9.212;2023-05-10T09:18:16;15.30;55.20
15105;DHT22;7653;48.994;9.212;2023-05-10T09:20:42;15.50;55.40
15105;DHT22;7653;48.994;9.212;2023-05-10T09:23:08;15.70;55.10
15105;DHT22;7653;48.994;9.212;2023-05-10T09:25:33;15.90;52.80
15105;DHT22;7653;48.994;9.212;2023-05-10T09:28:00;15.80;51.60
15105;DHT22;7653;48.994;9.212;2023-05-10T09:30:29;15.70;50.90
15105;DHT22;7653;48.994;9.212;2023-05-10T09:32:57;15.60;48.70
15105;DHT22;7653;48.994;9.212;2023-05-10T09:35:25;15.50;51.50
15105;DHT22;7653;48.994;9.212;2023-05-10T09:37:53;15.70;50.70
15105;DHT22;7653;48.994;9.212;2023-05-10T09:40:25;15.80;50.20
15105;DHT22;7653;48.994;9.212;2023-05-10T09:45:26;15.90;50.30
15105;DHT22;7653;48.994;9.212;2023-05-10T09:47:53;16.10;48.30
15105;DHT22;7653;48.994;9.212;2023-05-10T09:50:20;16.00;48.50
15105;DHT22;7653;48.994;9.212;2023-05-10T09:55:11;16.20;47.90
15105;DHT22;7653;48.994;9.212;2023-05-10T09:57:37;16.20;47.50
15105;DHT22;7653;48.994;9.212;2023-05-10T10:00:04;16.20;46.20
15105;DHT22;7653;48.994;9.212;2023-05-10T10:02:31;16.00;46.60
15105;DHT22;7653;48.994;9.212;2023-05-10T10:04:57;16.50;46.50
15105;DHT22;7653;48.994;9.212;2023-05-10T10:07:24;17.00;46.00
15105;DHT22;7653;48.994;9.212;2023-05-10T10:09:51;17.40;42.90
15105;DHT22;7653;48.994;9.212;2023-05-10T10:12:17;17.40;41.30
15105;DHT22;7653;48.994;9.212;2023-05-10T10:14:43;17.10;39.20
15105;DHT22;7653;48.994;9.212;2023-05-10T10:17:09;16.80;39.40
15105;DHT22;7653;48.994;9.212;2023-05-10T10:19:35;17.20;39.90
15105;DHT22;7653;48.994;9.212;2023-05-10T10:22:01;17.30;40.40
15105;DHT22;7653;48.994;9.212;2023-05-10T10:24:26;17.40;37.20
15105;DHT22;7653;48.994;9.212;2023-05-10T10:26:55;17.50;37.30
15105;DHT22;7653;48.994;9.212;2023-05-10T10:29:44;16.90;36.80
15105;DHT22;7653;48.994;9.212;2023-05-10T10:35:31;15.90;46.10
15105;DHT22;7653;48.994;9.212;2023-05-10T10:37:57;15.40;50.00
15105;DHT22;7653;48.994;9.212;2023-05-10T10:40:32;15.60;48.10
15105;DHT22;7653;48.994;9.212;2023-05-10T10:43:25;15.60;50.20
15105;DHT22;7653;48.994;9.212;2023-05-10T10:48:35;15.90;43.50
15105;DHT22;7653;48.994;9.212;2023-05-10T10:51:01;16.20;45.10
15105;DHT22;7653;48.994;9.212;2023-05-10T10:53:27;16.10;44.90
15105;DHT22;7653;48.994;9.212;2023-05-10T10:56:11;16.10;43.70
15105;DHT22;7653;48.994;9.212;2023-05-10T10:58:39;15.90;45.90
15105;DHT22;7653;48.994;9.212;2023-05-10T11:01:14;15.90;46.80
15105;DHT22;7653;48.994;9.212;2023-05-10T11:03:54;15.70;41.80
15105;DHT22;7653;48.994;9.212;2023-05-10T11:06:29;15.20;44.20
15105;DHT22;7653;48.994;9.212;2023-05-10T11:08:57;15.00;44.60
15105;DHT22;7653;48.994;9.212;2023-05-10T11:11:23;14.80;45.00
15105;DHT22;7653;48.994;9.212;2023-05-10T11:13:49;14.70;44.90
15105;DHT22;7653;48.994;9.212;2023-05-10T11:19:04;14.70;46.60
15105;DHT22;7653;48.994;9.212;2023-05-10T11:21:33;14.60;44.80
15105;DHT22;7653;48.994;9.212;2023-05-10T11:24:00;14.60;44.80
15105;DHT22;7653;48.994;9.212;2023-05-10T11:26:30;14.70;45.00
15105;DHT22;7653;48.994;9.212;2023-05-10T11:28:56;14.80;45.00
15105;DHT22;7653;48.994;9.212;2023-05-10T11:31:23;15.20;45.30
15105;DHT22;7653;48.994;9.212;2023-05-10T11:33:53;15.40;45.50
15105;DHT22;7653;48.994;9.212;2023-05-10T11:36:33;15.60;44.40
15105;DHT22;7653;48.994;9.212;2023-05-10T11:38:58;15.90;43.00
15105;DHT22;7653;48.994;9.212;2023-05-10T11:41:25;16.10;43.40
15105;DHT22;7653;48.994;9.212;2023-05-10T11:43:53;16.10;42.50
15105;DHT22;7653;48.994;9.212;2023-05-10T11:46:21;16.10;43.00
15105;DHT22;7653;48.994;9.212;2023-05-10T11:48:52;16.00;41.90
15105;DHT22;7653;48.994;9.212;2023-05-10T11:51:25;16.10;43.10
15105;DHT22;7653;48.994;9.212;2023-05-10T11:53:53;16.20;41.00
15105;DHT22;7653;48.994;9.212;2023-05-10T11:56:19;16.30;41.30
15105;DHT22;7653;48.994;9.212;2023-05-10T11:58:51;16.30;41.30
15105;DHT22;7653;48.994;9.212;2023-05-10T12:01:17;16.50;40.80
15105;DHT22;7653;48.994;9.212;2023-05-10T12:03:42;16.60;38.70
15105;DHT22;7653;48.994;9.212;2023-05-10T12:06:08;16.60;40.00
15105;DHT22;7653;48.994;9.212;2023-05-10T12:08:34;16.80;37.80
15105;DHT22;7653;48.994;9.212;2023-05-10T12:11:08;16.80;36.70
15105;DHT22;7653;48.994;9.212;2023-05-10T12:13:39;16.80;32.50
15105;DHT22;7653;48.994;9.212;2023-05-10T12:16:24;16.90;33.10
15105;DHT22;7653;48.994;9.212;2023-05-10T12:18:52;16.70;32.20
15105;DHT22;7653;48.994;9.212;2023-05-10T12:21:21;16.90;32.80
15105;DHT22;7653;48.994;9.212;2023-05-10T12:23:52;17.00;33.90
15105;DHT22;7653;48.994;9.212;2023-05-10T12:26:21;16.80;33.20
15105;DHT22;7653;48.994;9.212;2023-05-10T12:28:47;17.00;33.30
15105;DHT22;7653;48.994;9.212;2023-05-10T12:31:12;16.80;33.00
15105;DHT22;7653;48.994;9.212;2023-05-10T12:33:40;16.90;34.00
15105;DHT22;7653;48.994;9.212;2023-05-10T12:36:13;16.80;34.90
15105;DHT22;7653;48.994;9.212;2023-05-10T12:41:09;16.80;35.60
15105;DHT22;7653;48.994;9.212;2023-05-10T12:43:39;17.20;31.90
15105;DHT22;7653;48.994;9.212;2023-05-10T12:46:13;17.40;30.00
15105;DHT22;7653;48.994;9.212;2023-05-10T12:48:40;16.80;30.60
15105;DHT22;7653;48.994;9.212;2023-05-10T12:51:07;16.70;30.60
15105;DHT22;7653;48.994;9.212;2023-05-10T12:53:38;17.00;29.70
15105;DHT22;7653;48.994;9.212;2023-05-10T12:56:04;17.00;29.60
15105;DHT22;7653;48.994;9.212;2023-05-10T12:58:30;17.20;28.50
15105;DHT22;7653;48.994;9.212;2023-05-10T13:00:57;17.10;29.90
15105;DHT22;7653;48.994;9.212;2023-05-10T13:03:22;16.50;30.30
15105;DHT22;7653;48.994;9.212;2023-05-10T13:05:48;16.80;30.30
15105;DHT22;7653;48.994;9.212;2023-05-10T13:08:14;16.90;30.30
15105;DHT22;7653;48.994;9.212;2023-05-10T13:10:40;16.90;30.00
15105;DHT22;7653;48.994;9.212;2023-05-10T13:13:06;16.90;30.80
15105;DHT22;7653;48.994;9.212;2023-05-10T13:15:32;17.10;30.40
15105;DHT22;7653;48.994;9.212;2023-05-10T13:17:58;17.00;30.70
15105;DHT22;7653;48.994;9.212;2023-05-10T13:20:24;17.20;30.00
15105;DHT22;7653;48.994;9.212;2023-05-10T13:22:50;17.30;29.80
15105;DHT22;7653;48.994;9.212;2023-05-10T13:25:16;17.30;29.20
15105;DHT22;7653;48.994;9.212;2023-05-10T13:27:42;17.40;28.90
15105;DHT22;7653;48.994;9.212;2023-05-10T13:30:08;17.50;27.80
15105;DHT22;7653;48.994;9.212;2023-05-10T13:32:34;17.60;28.30
15105;DHT22;7653;48.994;9.212;2023-05-10T13:35:00;17.80;27.90
15105;DHT22;7653;48.994;9.212;2023-05-10T13:37:26;17.60;28.50
15105;DHT22;7653;48.994;9.212;2023-05-10T13:39:52;17.50;27.90
15105;DHT22;7653;48.994;9.212;2023-05-10T13:42:18;17.30;28.50
15105;DHT22;7653;48.994;9.212;2023-05-10T13:44:43;17.70;28.20
15105;DHT22;7653;48.994;9.212;2023-05-10T13:47:09;18.00;28.80
15105;DHT22;7653;48.994;9.212;2023-05-10T13:49:35;17.80;28.00
15105;DHT22;7653;48.994;9.212;2023-05-10T13:52:01;17.90;26.70
15105;DHT22;7653;48.994;9.212;2023-05-10T13:54:34;17.90;26.80
15105;DHT22;7653;48.994;9.212;2023-05-10T13:57:00;17.90;28.00
15105;DHT22;7653;48.994;9.212;2023-05-10T13:59:26;18.10;26.90
15105;DHT22;7653;48.994;9.212;2023-05-10T14:01:52;18.00;28.10
15105;DHT22;7653;48.994;9.212;2023-05-10T14:04:17;18.00;26.80
15105;DHT22;7653;48.994;9.212;2023-05-10T14:06:43;18.00;27.40
15105;DHT22;7653;48.994;9.212;2023-05-10T14:09:09;18.10;26.10
15105;DHT22;7653;48.994;9.212;2023-05-10T14:11:35;18.00;25.60
15105;DHT22;7653;48.994;9.212;2023-05-10T14:14:00;17.90;26.20
15105;DHT22;7653;48.994;9.212;2023-05-10T14:16:26;18.10;24.20
15105;DHT22;7653;48.994;9.212;2023-05-10T14:18:52;18.00;24.10
15105;DHT22;7653;48.994;9.212;2023-05-10T14:21:18;17.80;26.00
15105;DHT22;7653;48.994;9.212;2023-05-10T14:23:44;17.70;24.30
15105;DHT22;7653;48.994;9.212;2023-05-10T14:26:09;17.50;23.60
15105;DHT22;7653;48.994;9.212;2023-05-10T14:28:35;17.60;23.70
15105;DHT22;7653;48.994;9.212;2023-05-10T14:31:01;17.50;24.30
15105;DHT22;7653;48.994;9.212;2023-05-10T14:33:26;17.60;24.40
15105;DHT22;7653;48.994;9.212;2023-05-10T14:35:53;17.70;23.20
15105;DHT22;7653;48.994;9.212;2023-05-10T14:38:21;17.70;24.30
15105;DHT22;7653;48.994;9.212;2023-05-10T14:40:47;17.80;23.90
15105;DHT22;7653;48.994;9.212;2023-05-10T14:43:13;17.80;23.80
15105;DHT22;7653;48.994;9.212;2023-05-10T14:45:38;17.50;24.20
15105;DHT22;7653;48.994;9.212;2023-05-10T14:48:04;17.60;23.70
15105;DHT22;7653;48.994;9.212;2023-05-10T14:50:30;17.60;23.70
15105;DHT22;7653;48.994;9.212;2023-05-10T14:52:57;17.70;23.80
15105;DHT22;7653;48.994;9.212;2023-05-10T14:55:22;17.60;23.70
15105;DHT22;7653;48.994;9.212;2023-05-10T14:57:48;17.80;23.90
15105;DHT22;7653;48.994;9.212;2023-05-10T15:00:15;17.80;22.80
15105;DHT22;7653;48.994;9.212;2023-05-10T15:02:41;17.70;23.70
15105;DHT22;7653;48.994;9.212;2023-05-10T15:05:07;17.40;23.20
15105;DHT22;7653;48.994;9.212;2023-05-10T15:07:33;17.60;24.50
15105;DHT22;7653;48.994;9.212;2023-05-10T15:09:58;18.00;24.00
15105;DHT22;7653;48.994;9.212;2023-05-10T15:12:24;18.10;22.50
15105;DHT22;7653;48.994;9.212;2023-05-10T15:14:50;18.00;21.90
15105;DHT22;7653;48.994;9.212;2023-05-10T15:17:15;18.10;22.10
15105;DHT22;7653;48.994;9.212;2023-05-10T15:19:41;17.90;21.70
15105;DHT22;7653;48.994;9.212;2023-05-10T15:22:08;17.70;22.90
15105;DHT22;7653;48.994;9.212;2023-05-10T15:24:33;18.20;22.90
15105;DHT22;7653;48.994;9.212;2023-05-10T15:26:59;18.10;20.20
15105;DHT22;7653;48.994;9.212;2023-05-10T15:29:26;18.20;21.70
15105;DHT22;7653;48.994;9.212;2023-05-10T15:31:51;18.10;21.40
15105;DHT22;7653;48.994;9.212;2023-05-10T15:34:18;18.00;19.80
15105;DHT22;7653;48.994;9.212;2023-05-10T15:36:44;17.70;20.70
15105;DHT22;7653;48.994;9.212;2023-05-10T15:39:10;17.70;20.30
15105;DHT22;7653;48.994;9.212;2023-05-10T15:41:36;17.90;22.30
15105;DHT22;7653;48.994;9.212;2023-05-10T15:44:02;18.10;20.10
15105;DHT22;7653;48.994;9.212;2023-05-10T15:46:28;18.00;20.70
15105;DHT22;7653;48.994;9.212;2023-05-10T15:48:54;18.10;21.40
15105;DHT22;7653;48.994;9.212;2023-05-10T15:51:20;18.00;20.90
15105;DHT22;7653;48.994;9.212;2023-05-10T15:53:46;17.70;21.20
15105;DHT22;7653;48.994;9.212;2023-05-10T15:56:12;17.90;22.00
15105;DHT22;7653;48.994;9.212;2023-05-10T15:58:39;18.00;20.60
15105;DHT22;7653;48.994;9.212;2023-05-10T16:01:04;18.00;21.10
15105;DHT22;7653;48.994;9.212;2023-05-10T16:03:31;18.00;19.80
15105;DHT22;7653;48.994;9.212;2023-05-10T16:05:57;18.00;20.80
15105;DHT22;7653;48.994;9.212;2023-05-10T16:08:23;18.00;22.50
15105;DHT22;7653;48.994;9.212;2023-05-10T16:10:50;17.80;20.70
15105;DHT22;7653;48.994;9.212;2023-05-10T16:13:16;17.70;20.90
15105;DHT22;7653;48.994;9.212;2023-05-10T16:15:41;17.80;21.20
15105;DHT22;7653;48.994;9.212;2023-05-10T16:18:07;18.10;20.80
15105;DHT22;7653;48.994;9.212;2023-05-10T16:20:33;18.10;23.20
15105;DHT22;7653;48.994;9.212;2023-05-10T16:23:04;18.10;22.00
15105;DHT22;7653;48.994;9.212;2023-05-10T16:25:30;18.00;21.00